Time,TemperatureF,DewpointF,PressureIn,WindDirection,WindDirectionDegrees,WindSpeedMPH,WindSpeedGustMPH,Humidity,HourlyPrecipIn,Conditions,Clouds,dailyrainin,SoftwareType,DateUTC
2013-07-13 00:00:00,80.1,69.0,29.92,ENE,57,3.0,4.0,69,0.00,,,0.00,Wunderground v.1.15,2013-07-13 05:00:00,
2013-07-13 00:05:00,80.0,68.9,29.92,East,83,3.0,4.0,69,0.00,,,0.00,Wunderground v.1.15,2013-07-13 05:05:00,
2013-07-13 00:10:00,79.8,69.1,29.92,ENE,63,2.0,2.0,70,0.00,,,0.00,Wunderground v.1.15,2013-07-13 05:10:00,
2013-07-13 00:15:00,79.6,69.0,29.92,East,81,2.0,4.0,70,0.00,,,0.00,Wunderground v.1.15,2013-07-13 05:15:00,
2013-07-13 00:20:00,79.4,68.8,29.92,ENE,62,2.0,2.0,70,0.00,,,0.00,Wunderground v.1.15,2013-07-13 05:20:00,
2013-07-13 00:25:00,79.3,68.7,29.92,NE,53,2.0,4.0,70,0.00,,,0.00,Wunderground v.1.15,2013-07-13 05:25:00,
2013-07-13 00:30:00,79.2,68.6,29.92,ENE,71,3.0,3.0,70,0.00,,,0.00,Wunderground v.1.15,2013-07-13 05:30:00,
2013-07-13 00:35:00,79.1,68.9,29.91,NE,51,2.0,3.0,71,0.00,,,0.00,Wunderground v.1.15,2013-07-13 05:35:00,
2013-07-13 00:45:00,78.6,68.8,29.92,East,84,2.0,3.0,72,0.00,,,0.00,Wunderground v.1.15,2013-07-13 05:45:00,
2013-07-13 00:50:00,78.2,68.8,29.92,ESE,121,2.0,2.0,73,0.00,,,0.00,Wunderground v.1.15,2013-07-13 05:50:00,
2013-07-13 00:55:00,77.8,69.2,29.92,SE,139,1.0,2.0,75,0.00,,,0.00,Wunderground v.1.15,2013-07-13 05:55:00,
2013-07-13 01:00:00,77.4,69.2,29.91,ESE,106,0.0,1.0,76,0.00,,,0.00,Wunderground v.1.15,2013-07-13 06:00:00,
2013-07-13 01:05:00,77.1,68.9,29.92,SE,137,1.0,6.0,76,0.00,,,0.00,Wunderground v.1.15,2013-07-13 06:05:00,
2013-07-13 01:15:00,76.7,68.6,29.92,SE,131,0.0,6.0,76,0.00,,,0.00,Wunderground v.1.15,2013-07-13 06:15:00,
2013-07-13 01:20:00,76.6,68.8,29.92,SE,131,0.0,6.0,77,0.00,,,0.00,Wunderground v.1.15,2013-07-13 06:20:00,
2013-07-13 01:25:00,76.6,68.5,29.91,East,97,0.0,6.0,76,0.00,,,0.00,Wunderground v.1.15,2013-07-13 06:25:00,
2013-07-13 01:30:00,76.6,68.5,29.91,East,98,0.0,6.0,76,0.00,,,0.00,Wunderground v.1.15,2013-07-13 06:30:00,
2013-07-13 01:35:00,76.6,68.8,29.91,East,79,1.0,6.0,77,0.00,,,0.00,Wunderground v.1.15,2013-07-13 06:35:00,
2013-07-13 01:40:00,76.4,69.0,29.91,East,79,0.0,6.0,78,0.00,,,0.00,Wunderground v.1.15,2013-07-13 06:40:00,
2013-07-13 01:50:00,75.9,68.9,29.91,East,79,0.0,6.0,79,0.00,,,0.00,Wunderground v.1.15,2013-07-13 06:50:00,
2013-07-13 01:55:00,75.8,68.8,29.91,East,79,0.0,6.0,79,0.00,,,0.00,Wunderground v.1.15,2013-07-13 06:55:00,
2013-07-13 02:00:00,75.8,68.4,29.91,East,82,0.0,6.0,78,0.00,,,0.00,Wunderground v.1.15,2013-07-13 07:00:00,
2013-07-13 02:05:00,75.4,69.2,29.91,East,86,1.0,6.0,81,0.00,,,0.00,Wunderground v.1.15,2013-07-13 07:05:00,
2013-07-13 02:10:00,74.5,69.3,29.91,East,86,1.0,1.0,84,0.00,,,0.00,Wunderground v.1.15,2013-07-13 07:10:00,
2013-07-13 02:20:00,73.9,68.8,29.91,East,86,0.0,6.0,84,0.00,,,0.00,Wunderground v.1.15,2013-07-13 07:20:00,
2013-07-13 02:25:00,73.7,68.6,29.91,East,86,0.0,6.0,84,0.00,,,0.00,Wunderground v.1.15,2013-07-13 07:25:00,
2013-07-13 02:30:00,73.8,68.7,29.91,East,86,0.0,6.0,84,0.00,,,0.00,Wunderground v.1.15,2013-07-13 07:30:00,
2013-07-13 02:35:00,74.2,69.1,29.92,SE,124,0.0,6.0,84,0.00,,,0.00,Wunderground v.1.15,2013-07-13 07:35:00,
2013-07-13 02:40:00,74.2,69.1,29.92,SE,124,1.0,1.0,84,0.00,,,0.00,Wunderground v.1.15,2013-07-13 07:40:00,
2013-07-13 02:45:00,74.1,68.6,29.92,SE,124,0.0,6.0,83,0.00,,,0.00,Wunderground v.1.15,2013-07-13 07:45:00,
2013-07-13 02:50:00,74.2,68.3,29.92,NE,44,0.0,6.0,82,0.00,,,0.00,Wunderground v.1.15,2013-07-13 07:50:00,
2013-07-13 02:55:00,74.6,68.0,29.92,NE,47,1.0,6.0,80,0.00,,,0.00,Wunderground v.1.15,2013-07-13 07:55:00,
2013-07-13 03:00:00,75.0,67.7,29.92,East,84,1.0,6.0,78,0.00,,,0.00,Wunderground v.1.15,2013-07-13 08:00:00,
2013-07-13 03:05:00,75.3,68.0,29.92,East,92,1.0,6.0,78,0.00,,,0.00,Wunderground v.1.15,2013-07-13 08:05:00,
2013-07-13 03:10:00,75.2,67.9,29.92,ESE,110,1.0,6.0,78,0.00,,,0.00,Wunderground v.1.15,2013-07-13 08:10:00,
2013-07-13 03:15:00,74.9,67.9,29.92,East,95,1.0,6.0,79,0.00,,,0.00,Wunderground v.1.15,2013-07-13 08:15:00,
2013-07-13 03:25:00,74.6,67.7,29.91,ENE,77,0.0,2.0,79,0.00,,,0.00,Wunderground v.1.15,2013-07-13 08:25:00,
2013-07-13 03:30:00,74.8,67.8,29.91,ENE,66,1.0,6.0,79,0.00,,,0.00,Wunderground v.1.15,2013-07-13 08:30:00,
2013-07-13 03:35:00,74.9,67.6,29.91,East,94,1.0,6.0,78,0.00,,,0.00,Wunderground v.1.15,2013-07-13 08:35:00,
2013-07-13 03:40:00,74.8,67.5,29.91,East,88,1.0,1.0,78,0.00,,,0.00,Wunderground v.1.15,2013-07-13 08:40:00,
2013-07-13 03:45:00,74.8,67.5,29.91,ENE,78,1.0,6.0,78,0.00,,,0.00,Wunderground v.1.15,2013-07-13 08:45:00,
2013-07-13 03:55:00,74.7,67.8,29.91,ENE,76,0.0,6.0,79,0.00,,,0.00,Wunderground v.1.15,2013-07-13 08:55:00,
2013-07-13 04:00:00,74.6,67.3,29.91,ENE,76,0.0,6.0,78,0.00,,,0.00,Wunderground v.1.15,2013-07-13 09:00:00,
2013-07-13 04:05:00,74.6,67.3,29.91,ENE,75,1.0,6.0,78,0.00,,,0.00,Wunderground v.1.15,2013-07-13 09:05:00,
2013-07-13 04:10:00,74.4,66.7,29.91,North,352,0.0,6.0,77,0.00,,,0.00,Wunderground v.1.15,2013-07-13 09:10:00,
2013-07-13 04:15:00,74.4,67.1,29.90,North,355,0.0,6.0,78,0.00,,,0.00,Wunderground v.1.15,2013-07-13 09:15:00,
2013-07-13 04:20:00,74.3,67.0,29.91,ESE,110,1.0,6.0,78,0.00,,,0.00,Wunderground v.1.15,2013-07-13 09:20:00,
2013-07-13 04:30:00,73.8,68.3,29.91,ESE,111,0.0,6.0,83,0.00,,,0.00,Wunderground v.1.15,2013-07-13 09:30:00,
2013-07-13 04:35:00,73.3,67.5,29.91,ESE,110,0.0,6.0,82,0.00,,,0.00,Wunderground v.1.15,2013-07-13 09:35:00,
2013-07-13 04:40:00,73.1,67.3,29.91,ESE,110,0.0,6.0,82,0.00,,,0.00,Wunderground v.1.15,2013-07-13 09:40:00,
2013-07-13 04:45:00,73.1,67.3,29.91,ESE,110,0.0,6.0,82,0.00,,,0.00,Wunderground v.1.15,2013-07-13 09:45:00,
2013-07-13 04:50:00,73.1,66.9,29.91,ESE,109,0.0,6.0,81,0.00,,,0.00,Wunderground v.1.15,2013-07-13 09:50:00,
2013-07-13 05:00:00,73.2,67.0,29.91,North,351,1.0,6.0,81,0.00,,,0.00,Wunderground v.1.15,2013-07-13 10:00:00,
2013-07-13 05:05:00,73.3,67.1,29.91,North,352,0.0,6.0,81,0.00,,,0.00,Wunderground v.1.15,2013-07-13 10:05:00,
2013-07-13 05:10:00,73.3,67.1,29.91,North,352,0.0,6.0,81,0.00,,,0.00,Wunderground v.1.15,2013-07-13 10:10:00,
2013-07-13 05:15:00,73.2,67.0,29.90,North,349,0.0,6.0,81,0.00,,,0.00,Wunderground v.1.15,2013-07-13 10:15:00,
2013-07-13 05:20:00,73.2,66.7,29.91,North,349,0.0,6.0,80,0.00,,,0.00,Wunderground v.1.15,2013-07-13 10:20:00,
2013-07-13 05:25:00,73.1,66.9,29.90,NW,318,0.0,6.0,81,0.00,,,0.00,Wunderground v.1.15,2013-07-13 10:25:00,
2013-07-13 05:30:00,73.0,66.8,29.90,NW,318,0.0,6.0,81,0.00,,,0.00,Wunderground v.1.15,2013-07-13 10:30:00,
2013-07-13 05:40:00,72.7,66.5,29.91,NW,318,0.0,6.0,81,0.00,,,0.00,Wunderground v.1.15,2013-07-13 10:40:00,
2013-07-13 05:45:00,72.7,66.9,29.91,NW,318,0.0,6.0,82,0.00,,,0.00,Wunderground v.1.15,2013-07-13 10:45:00,
2013-07-13 05:50:00,72.6,66.4,29.91,NW,318,0.0,6.0,81,0.00,,,0.00,Wunderground v.1.15,2013-07-13 10:50:00,
2013-07-13 05:55:00,72.6,66.4,29.91,NW,318,0.0,6.0,81,0.00,,,0.00,Wunderground v.1.15,2013-07-13 10:55:00,
2013-07-13 06:05:00,72.6,66.4,29.92,NNW,342,1.0,6.0,81,0.00,,,0.00,Wunderground v.1.15,2013-07-13 11:05:00,
2013-07-13 06:10:00,72.4,66.6,29.92,NNW,342,1.0,1.0,82,0.00,,,0.00,Wunderground v.1.15,2013-07-13 11:10:00,
2013-07-13 06:15:00,72.3,66.8,29.92,North,352,1.0,6.0,83,0.00,,,0.00,Wunderground v.1.15,2013-07-13 11:15:00,
2013-07-13 06:20:00,72.1,66.6,29.92,North,351,0.0,6.0,83,0.00,,,0.00,Wunderground v.1.15,2013-07-13 11:20:00,
2013-07-13 06:25:00,72.0,65.8,29.92,North,356,0.0,6.0,81,0.00,,,0.00,Wunderground v.1.15,2013-07-13 11:25:00,
2013-07-13 06:30:00,72.2,66.0,29.92,NNW,328,0.0,6.0,81,0.00,,,0.00,Wunderground v.1.15,2013-07-13 11:30:00,
2013-07-13 06:35:00,72.8,65.9,29.92,North,354,1.0,6.0,79,0.00,,,0.00,Wunderground v.1.15,2013-07-13 11:35:00,
2013-07-13 06:40:00,73.1,65.8,29.92,North,4,2.0,2.0,78,0.00,,,0.00,Wunderground v.1.15,2013-07-13 11:40:00,
2013-07-13 06:45:00,73.3,66.0,29.92,North,4,1.0,6.0,78,0.00,,,0.00,Wunderground v.1.15,2013-07-13 11:45:00,
2013-07-13 06:50:00,73.6,66.3,29.92,North,4,0.0,6.0,78,0.00,,,0.00,Wunderground v.1.15,2013-07-13 11:50:00,
2013-07-13 06:55:00,74.1,66.4,29.92,ENE,68,0.0,6.0,77,0.00,,,0.00,Wunderground v.1.15,2013-07-13 11:55:00,
2013-07-13 07:00:00,74.3,67.0,29.93,ENE,68,0.0,6.0,78,0.00,,,0.00,Wunderground v.1.15,2013-07-13 12:00:00,
2013-07-13 07:10:00,74.8,66.3,29.93,NNE,13,1.0,1.0,75,0.00,,,0.00,Wunderground v.1.15,2013-07-13 12:10:00,
2013-07-13 07:15:00,75.3,67.2,29.93,NE,34,1.0,2.0,76,0.00,,,0.00,Wunderground v.1.15,2013-07-13 12:15:00,
2013-07-13 07:20:00,75.5,66.6,29.93,NE,39,1.0,6.0,74,0.00,,,0.00,Wunderground v.1.15,2013-07-13 12:20:00,
2013-07-13 07:25:00,75.8,66.5,29.94,North,6,2.0,6.0,73,0.00,,,0.00,Wunderground v.1.15,2013-07-13 12:25:00,
2013-07-13 07:30:00,75.9,67.0,29.94,North,11,2.0,6.0,74,0.00,,,0.00,Wunderground v.1.15,2013-07-13 12:30:00,
2013-07-13 07:40:00,76.9,67.2,29.94,North,6,1.0,6.0,72,0.00,,,0.00,Wunderground v.1.15,2013-07-13 12:40:00,
2013-07-13 07:45:00,77.1,67.4,29.94,ESE,121,1.0,6.0,72,0.00,,,0.00,Wunderground v.1.15,2013-07-13 12:45:00,
2013-07-13 07:50:00,77.5,66.9,29.94,NE,37,1.0,6.0,70,0.00,,,0.00,Wunderground v.1.15,2013-07-13 12:50:00,
2013-07-13 07:55:00,77.9,67.3,29.94,ENE,68,1.0,6.0,70,0.00,,,0.00,Wunderground v.1.15,2013-07-13 12:55:00,
2013-07-13 08:00:00,78.5,68.3,29.94,East,79,1.0,6.0,71,0.00,,,0.00,Wunderground v.1.15,2013-07-13 13:00:00,
2013-07-13 08:05:00,78.7,68.5,29.94,NNE,15,1.0,6.0,71,0.00,,,0.00,Wunderground v.1.15,2013-07-13 13:05:00,
2013-07-13 08:15:00,78.8,68.2,29.95,NNE,32,3.0,4.0,70,0.00,,,0.00,Wunderground v.1.15,2013-07-13 13:15:00,
2013-07-13 08:20:00,79.0,68.0,29.95,NE,46,2.0,6.0,69,0.00,,,0.00,Wunderground v.1.15,2013-07-13 13:20:00,
2013-07-13 08:25:00,79.2,68.1,29.95,NNE,17,2.0,6.0,69,0.00,,,0.00,Wunderground v.1.15,2013-07-13 13:25:00,
2013-07-13 08:30:00,79.5,69.3,29.95,East,87,2.0,6.0,71,0.00,,,0.00,Wunderground v.1.15,2013-07-13 13:30:00,
2013-07-13 08:35:00,79.4,69.2,29.95,North,356,2.0,6.0,71,0.00,,,0.00,Wunderground v.1.15,2013-07-13 13:35:00,
2013-07-13 08:45:00,79.9,69.7,29.95,ENE,63,2.0,3.0,71,0.00,,,0.00,Wunderground v.1.15,2013-07-13 13:45:00,
2013-07-13 08:50:00,80.2,69.5,29.95,ENE,68,2.0,2.0,70,0.00,,,0.00,Wunderground v.1.15,2013-07-13 13:50:00,
2013-07-13 08:55:00,81.1,70.8,29.95,NE,49,2.0,4.0,71,0.00,,,0.00,Wunderground v.1.15,2013-07-13 13:55:00,
2013-07-13 09:00:00,81.4,70.2,29.95,NNE,26,2.0,6.0,69,0.00,,,0.00,Wunderground v.1.15,2013-07-13 14:00:00,
2013-07-13 09:05:00,81.5,70.3,29.95,NE,51,3.0,6.0,69,0.00,,,0.00,Wunderground v.1.15,2013-07-13 14:05:00,
2013-07-13 09:10:00,82.1,70.9,29.95,NNE,33,3.0,3.0,69,0.00,,,0.00,Wunderground v.1.15,2013-07-13 14:10:00,
2013-07-13 09:20:00,82.1,70.5,29.95,NE,55,3.0,6.0,68,0.00,,,0.00,Wunderground v.1.15,2013-07-13 14:20:00,
2013-07-13 09:25:00,82.4,70.8,29.95,NNW,337,4.0,6.0,68,0.00,,,0.00,Wunderground v.1.15,2013-07-13 14:25:00,
2013-07-13 09:30:00,83.2,71.1,29.95,North,11,2.0,2.0,67,0.00,,,0.00,Wunderground v.1.15,2013-07-13 14:30:00,
2013-07-13 09:35:00,83.9,71.8,29.95,NE,49,2.0,3.0,67,0.00,,,0.00,Wunderground v.1.15,2013-07-13 14:35:00,
2013-07-13 09:40:00,84.2,71.2,29.95,East,85,2.0,6.0,65,0.00,,,0.00,Wunderground v.1.15,2013-07-13 14:40:00,
2013-07-13 09:50:00,84.1,71.1,29.95,NNW,348,3.0,3.0,65,0.00,,,0.00,Wunderground v.1.15,2013-07-13 14:50:00,
2013-07-13 09:55:00,84.3,71.2,29.94,NNE,20,3.0,4.0,65,0.00,,,0.00,Wunderground v.1.15,2013-07-13 14:55:00,
2013-07-13 10:00:00,84.3,72.1,29.94,ESE,118,3.0,3.0,67,0.00,,,0.00,Wunderground v.1.15,2013-07-13 15:00:00,
2013-07-13 10:05:00,84.4,70.9,29.94,East,94,3.0,6.0,64,0.00,,,0.00,Wunderground v.1.15,2013-07-13 15:05:00,
2013-07-13 10:10:00,84.7,71.6,29.94,North,11,2.0,6.0,65,0.00,,,0.00,Wunderground v.1.15,2013-07-13 15:10:00,
2013-07-13 10:15:00,84.9,71.4,29.94,West,280,2.0,6.0,64,0.00,,,0.00,Wunderground v.1.15,2013-07-13 15:15:00,
2013-07-13 10:25:00,86.5,72.4,29.94,ESE,113,2.0,6.0,63,0.00,,,0.00,Wunderground v.1.15,2013-07-13 15:25:00,
2013-07-13 10:35:00,86.8,72.7,29.95,East,96,3.0,6.0,63,0.00,,,0.00,Wunderground v.1.15,2013-07-13 15:35:00,
2013-07-13 10:40:00,87.0,72.4,29.95,SSE,150,2.0,2.0,62,0.00,,,0.00,Wunderground v.1.15,2013-07-13 15:40:00,
2013-07-13 10:45:00,87.2,73.1,29.95,ESE,117,2.0,3.0,63,0.00,,,0.00,Wunderground v.1.15,2013-07-13 15:45:00,
2013-07-13 10:50:00,87.1,72.5,29.95,East,100,2.0,6.0,62,0.00,,,0.00,Wunderground v.1.15,2013-07-13 15:50:00,
2013-07-13 10:55:00,87.2,72.6,29.95,NE,48,2.0,6.0,62,0.00,,,0.00,Wunderground v.1.15,2013-07-13 15:55:00,
2013-07-13 11:00:00,87.5,72.9,29.94,NNW,345,2.0,2.0,62,0.00,,,0.00,Wunderground v.1.15,2013-07-13 16:00:00,
2013-07-13 11:05:00,87.7,72.1,29.94,ENE,65,2.0,6.0,60,0.00,,,0.00,Wunderground v.1.15,2013-07-13 16:05:00,
2013-07-13 11:10:00,87.7,72.6,29.95,ESE,105,3.0,6.0,61,0.00,,,0.00,Wunderground v.1.15,2013-07-13 16:10:00,
2013-07-13 11:15:00,87.0,72.4,29.95,ESE,103,3.0,6.0,62,0.00,,,0.00,Wunderground v.1.15,2013-07-13 16:15:00,
2013-07-13 11:25:00,87.3,71.7,29.94,ESE,103,2.0,6.0,60,0.00,,,0.00,Wunderground v.1.15,2013-07-13 16:25:00,
2013-07-13 11:30:00,87.7,72.1,29.94,NNW,336,3.0,3.0,60,0.00,,,0.00,Wunderground v.1.15,2013-07-13 16:30:00,
2013-07-13 11:35:00,88.8,72.1,29.94,NW,316,2.0,6.0,58,0.00,,,0.00,Wunderground v.1.15,2013-07-13 16:35:00,
2013-07-13 11:40:00,89.3,69.9,29.94,NNE,26,2.0,6.0,53,0.00,,,0.00,Wunderground v.1.15,2013-07-13 16:40:00,
2013-07-13 11:45:00,89.0,69.1,29.94,ENE,78,3.0,6.0,52,0.00,,,0.00,Wunderground v.1.15,2013-07-13 16:45:00,
2013-07-13 11:50:00,88.6,65.8,29.94,ESE,107,3.0,3.0,47,0.00,,,0.00,Wunderground v.1.15,2013-07-13 16:50:00,
2013-07-13 12:00:00,89.5,67.8,29.94,ESE,110,3.0,6.0,49,0.00,,,0.00,Wunderground v.1.15,2013-07-13 17:00:00,
2013-07-13 12:05:00,89.1,69.2,29.94,East,82,3.0,6.0,52,0.00,,,0.00,Wunderground v.1.15,2013-07-13 17:05:00,
2013-07-13 12:10:00,89.4,69.5,29.94,NW,325,3.0,3.0,52,0.00,,,0.00,Wunderground v.1.15,2013-07-13 17:10:00,
2013-07-13 12:15:00,90.0,69.4,29.94,NNE,29,2.0,6.0,51,0.00,,,0.00,Wunderground v.1.15,2013-07-13 17:15:00,
2013-07-13 12:20:00,89.3,67.6,29.94,NE,49,3.0,3.0,49,0.00,,,0.00,Wunderground v.1.15,2013-07-13 17:20:00,
2013-07-13 12:30:00,89.4,70.0,29.93,ESE,117,4.0,4.0,53,0.00,,,0.00,Wunderground v.1.15,2013-07-13 17:30:00,
2013-07-13 12:35:00,89.5,67.8,29.93,WSW,250,4.0,6.0,49,0.00,,,0.00,Wunderground v.1.15,2013-07-13 17:35:00,
2013-07-13 12:40:00,90.2,68.5,29.93,SSE,156,2.0,6.0,49,0.00,,,0.00,Wunderground v.1.15,2013-07-13 17:40:00,
2013-07-13 12:45:00,90.3,67.9,29.93,North,4,2.0,6.0,48,0.00,,,0.00,Wunderground v.1.15,2013-07-13 17:45:00,
2013-07-13 12:50:00,90.2,69.0,29.93,NE,37,4.0,6.0,50,0.00,,,0.00,Wunderground v.1.15,2013-07-13 17:50:00,
2013-07-13 12:55:00,90.0,68.3,29.93,NNE,26,4.0,6.0,49,0.00,,,0.00,Wunderground v.1.15,2013-07-13 17:55:00,
2013-07-13 13:05:00,89.3,65.2,29.93,NNE,32,5.0,8.0,45,0.00,,,0.00,Wunderground v.1.15,2013-07-13 18:05:00,
2013-07-13 13:10:00,90.0,65.2,29.93,West,271,5.0,5.0,44,0.00,,,0.00,Wunderground v.1.15,2013-07-13 18:10:00,
2013-07-13 13:15:00,90.8,65.2,29.93,NE,46,4.0,6.0,43,0.00,,,0.00,Wunderground v.1.15,2013-07-13 18:15:00,
2013-07-13 13:20:00,91.3,66.3,29.93,ENE,76,3.0,6.0,44,0.00,,,0.00,Wunderground v.1.15,2013-07-13 18:20:00,
2013-07-13 13:25:00,90.0,64.5,29.93,NE,46,4.0,6.0,43,0.00,,,0.00,Wunderground v.1.15,2013-07-13 18:25:00,
2013-07-13 13:35:00,90.3,64.8,29.93,NNW,345,5.0,7.0,43,0.00,,,0.00,Wunderground v.1.15,2013-07-13 18:35:00,
2013-07-13 13:40:00,90.3,64.8,29.93,NW,324,4.0,6.0,43,0.00,,,0.00,Wunderground v.1.15,2013-07-13 18:40:00,
2013-07-13 13:45:00,90.2,64.7,29.93,ENE,60,5.0,7.0,43,0.00,,,0.00,Wunderground v.1.15,2013-07-13 18:45:00,
2013-07-13 13:50:00,90.2,64.7,29.92,NE,34,6.0,6.0,43,0.00,,,0.00,Wunderground v.1.15,2013-07-13 18:50:00,
2013-07-13 13:55:00,90.3,63.4,29.92,NW,314,5.0,6.0,41,0.00,,,0.00,Wunderground v.1.15,2013-07-13 18:55:00,
2013-07-13 14:00:00,90.5,63.6,29.92,NNW,337,5.0,5.0,41,0.00,,,0.00,Wunderground v.1.15,2013-07-13 19:00:00,
2013-07-13 14:05:00,90.6,64.4,29.92,NNE,30,5.0,7.0,42,0.00,,,0.00,Wunderground v.1.15,2013-07-13 19:05:00,
2013-07-13 14:10:00,90.6,62.3,29.92,NNW,338,5.0,5.0,39,0.00,,,0.00,Wunderground v.1.15,2013-07-13 19:10:00,
2013-07-13 14:15:00,90.8,61.7,29.92,NE,39,4.0,6.0,38,0.00,,,0.00,Wunderground v.1.15,2013-07-13 19:15:00,
2013-07-13 14:20:00,90.6,63.0,29.92,NW,319,4.0,6.0,40,0.00,,,0.00,Wunderground v.1.15,2013-07-13 19:20:00,
2013-07-13 14:25:00,91.0,62.6,29.91,North,7,5.0,6.0,39,0.00,,,0.00,Wunderground v.1.15,2013-07-13 19:25:00,
2013-07-13 14:30:00,91.0,64.0,29.91,NNW,327,4.0,4.0,41,0.00,,,0.00,Wunderground v.1.15,2013-07-13 19:30:00,
2013-07-13 14:40:00,91.7,64.7,29.91,NNW,332,3.0,6.0,41,0.00,,,0.00,Wunderground v.1.15,2013-07-13 19:40:00,
2013-07-13 14:45:00,91.3,63.6,29.91,NW,326,4.0,7.0,40,0.00,,,0.00,Wunderground v.1.15,2013-07-13 19:45:00,
2013-07-13 14:50:00,90.8,60.9,29.91,NE,51,5.0,6.0,37,0.00,,,0.00,Wunderground v.1.15,2013-07-13 19:50:00,
2013-07-13 14:55:00,90.8,61.7,29.90,North,10,5.0,7.0,38,0.00,,,0.00,Wunderground v.1.15,2013-07-13 19:55:00,
2013-07-13 15:00:00,90.7,56.8,29.90,NE,44,6.0,6.0,32,0.00,,,0.00,Wunderground v.1.15,2013-07-13 20:00:00,
2013-07-13 15:05:00,90.9,57.8,29.90,ENE,71,6.0,6.0,33,0.00,,,0.00,Wunderground v.1.15,2013-07-13 20:05:00,
2013-07-13 15:15:00,91.6,58.4,29.90,NNE,31,3.0,6.0,33,0.00,,,0.00,Wunderground v.1.15,2013-07-13 20:15:00,
2013-07-13 15:20:00,92.0,58.8,29.90,ENE,65,2.0,6.0,33,0.00,,,0.00,Wunderground v.1.15,2013-07-13 20:20:00,
2013-07-13 15:25:00,91.7,57.7,29.90,East,82,3.0,6.0,32,0.00,,,0.00,Wunderground v.1.15,2013-07-13 20:25:00,
2013-07-13 15:30:00,91.3,55.5,29.90,East,97,3.0,3.0,30,0.00,,,0.00,Wunderground v.1.15,2013-07-13 20:30:00,
2013-07-13 15:35:00,92.2,59.8,29.90,ESE,113,2.0,6.0,34,0.00,,,0.00,Wunderground v.1.15,2013-07-13 20:35:00,
2013-07-13 15:40:00,93.2,58.1,29.89,SW,221,1.0,1.0,31,0.00,,,0.00,Wunderground v.1.15,2013-07-13 20:40:00,
2013-07-13 15:45:00,94.4,60.9,29.89,NNE,30,1.0,6.0,33,0.00,,,0.00,Wunderground v.1.15,2013-07-13 20:45:00,
2013-07-13 15:50:00,93.4,61.7,29.89,North,11,2.0,6.0,35,0.00,,,0.00,Wunderground v.1.15,2013-07-13 20:50:00,
2013-07-13 15:55:00,92.2,59.8,29.89,NNW,330,4.0,6.0,34,0.00,,,0.00,Wunderground v.1.15,2013-07-13 20:55:00,
2013-07-13 16:00:00,91.5,59.2,29.88,SW,233,3.0,6.0,34,0.00,,,0.00,Wunderground v.1.15,2013-07-13 21:00:00,
2013-07-13 16:10:00,92.2,60.6,29.88,NE,51,1.0,6.0,35,0.00,,,0.00,Wunderground v.1.15,2013-07-13 21:10:00,
2013-07-13 16:15:00,91.9,64.1,29.88,ENE,58,1.0,6.0,40,0.00,,,0.00,Wunderground v.1.15,2013-07-13 21:15:00,
2013-07-13 16:20:00,90.8,63.1,29.88,NE,51,2.0,2.0,40,0.00,,,0.00,Wunderground v.1.15,2013-07-13 21:20:00,
2013-07-13 16:25:00,90.8,62.4,29.88,ESE,116,2.0,6.0,39,0.00,,,0.00,Wunderground v.1.15,2013-07-13 21:25:00,
2013-07-13 16:30:00,90.6,64.4,29.88,NNE,30,2.0,6.0,42,0.00,,,0.00,Wunderground v.1.15,2013-07-13 21:30:00,
2013-07-13 16:35:00,90.4,63.5,29.88,ENE,78,2.0,6.0,41,0.00,,,0.00,Wunderground v.1.15,2013-07-13 21:35:00,
2013-07-13 16:40:00,89.9,63.7,29.88,ENE,72,2.0,6.0,42,0.00,,,0.00,Wunderground v.1.15,2013-07-13 21:40:00,
2013-07-13 16:50:00,89.6,64.8,29.88,NE,51,2.0,6.0,44,0.00,,,0.00,Wunderground v.1.15,2013-07-13 21:50:00,
2013-07-13 16:55:00,89.3,65.2,29.88,ENE,72,2.0,6.0,45,0.00,,,0.00,Wunderground v.1.15,2013-07-13 21:55:00,
2013-07-13 17:00:00,89.4,66.5,29.88,ENE,59,2.0,2.0,47,0.00,,,0.00,Wunderground v.1.15,2013-07-13 22:00:00,
2013-07-13 17:05:00,89.0,67.9,29.88,NE,38,2.0,4.0,50,0.00,,,0.00,Wunderground v.1.15,2013-07-13 22:05:00,
2013-07-13 17:10:00,88.6,68.7,29.88,ENE,58,2.0,6.0,52,0.00,,,0.00,Wunderground v.1.15,2013-07-13 22:10:00,
2013-07-13 17:20:00,87.7,69.0,29.88,ENE,59,3.0,3.0,54,0.00,,,0.00,Wunderground v.1.15,2013-07-13 22:20:00,
2013-07-13 17:25:00,87.6,69.4,29.88,NE,38,2.0,6.0,55,0.00,,,0.00,Wunderground v.1.15,2013-07-13 22:25:00,
2013-07-13 17:30:00,87.7,70.1,29.88,ENE,62,2.0,2.0,56,0.00,,,0.00,Wunderground v.1.15,2013-07-13 22:30:00,
2013-07-13 17:35:00,87.9,69.7,29.88,NE,46,2.0,3.0,55,0.00,,,0.00,Wunderground v.1.15,2013-07-13 22:35:00,
2013-07-13 17:40:00,87.8,69.1,29.89,NNE,23,3.0,7.0,54,0.00,,,0.00,Wunderground v.1.15,2013-07-13 22:40:00,
2013-07-13 17:45:00,87.5,69.3,29.88,NNE,20,4.0,7.0,55,0.00,,,0.00,Wunderground v.1.15,2013-07-13 22:45:00,
2013-07-13 17:55:00,87.3,68.6,29.88,ENE,57,4.0,5.0,54,0.00,,,0.00,Wunderground v.1.15,2013-07-13 22:55:00,
2013-07-13 18:00:00,87.2,68.5,29.88,NE,38,5.0,5.0,54,0.00,,,0.00,Wunderground v.1.15,2013-07-13 23:00:00,
2013-07-13 18:05:00,87.0,67.8,29.89,North,358,5.0,6.0,53,0.00,,,0.00,Wunderground v.1.15,2013-07-13 23:05:00,
2013-07-13 18:10:00,87.0,68.3,29.89,ENE,63,5.0,7.0,54,0.00,,,0.00,Wunderground v.1.15,2013-07-13 23:10:00,
2013-07-13 18:15:00,87.0,67.2,29.89,NE,44,5.0,7.0,52,0.00,,,0.00,Wunderground v.1.15,2013-07-13 23:15:00,
2013-07-13 18:25:00,87.1,67.9,29.88,ENE,59,3.0,6.0,53,0.00,,,0.00,Wunderground v.1.15,2013-07-13 23:25:00,
2013-07-13 18:30:00,87.0,68.3,29.89,NE,39,3.0,3.0,54,0.00,,,0.00,Wunderground v.1.15,2013-07-13 23:30:00,
2013-07-13 18:35:00,86.8,67.6,29.89,NNE,33,4.0,4.0,53,0.00,,,0.00,Wunderground v.1.15,2013-07-13 23:35:00,
2013-07-13 18:40:00,86.6,68.0,29.89,NNE,17,4.0,6.0,54,0.00,,,0.00,Wunderground v.1.15,2013-07-13 23:40:00,
2013-07-13 18:45:00,86.5,67.9,29.89,NNE,19,3.0,6.0,54,0.00,,,0.00,Wunderground v.1.15,2013-07-13 23:45:00,
2013-07-13 18:50:00,86.2,67.6,29.88,North,1,3.0,6.0,54,0.00,,,0.00,Wunderground v.1.15,2013-07-13 23:50:00,
2013-07-13 19:00:00,85.5,68.0,29.89,NNE,22,3.0,6.0,56,0.00,,,0.00,Wunderground v.1.15,2013-07-14 00:00:00,
2013-07-13 19:05:00,85.2,68.2,29.89,NNE,26,3.0,6.0,57,0.00,,,0.00,Wunderground v.1.15,2013-07-14 00:05:00,
2013-07-13 19:10:00,85.0,68.6,29.89,NE,44,3.0,6.0,58,0.00,,,0.00,Wunderground v.1.15,2013-07-14 00:10:00,
2013-07-13 19:15:00,84.7,68.3,29.89,NE,49,3.0,6.0,58,0.00,,,0.00,Wunderground v.1.15,2013-07-14 00:15:00,
2013-07-13 19:20:00,84.6,68.7,29.89,NNE,29,2.0,6.0,59,0.00,,,0.00,Wunderground v.1.15,2013-07-14 00:20:00,
2013-07-13 19:25:00,84.4,69.0,29.89,NNE,13,2.0,6.0,60,0.00,,,0.00,Wunderground v.1.15,2013-07-14 00:25:00,
2013-07-13 19:30:00,84.2,69.3,29.89,NNE,13,2.0,2.0,61,0.00,,,0.00,Wunderground v.1.15,2013-07-14 00:30:00,
2013-07-13 19:35:00,84.1,69.2,29.89,NNE,26,2.0,3.0,61,0.00,,,0.00,Wunderground v.1.15,2013-07-14 00:35:00,
2013-07-13 19:40:00,84.1,69.2,29.89,NNE,20,2.0,6.0,61,0.00,,,0.00,Wunderground v.1.15,2013-07-14 00:40:00,
2013-07-13 19:45:00,84.0,69.6,29.89,North,352,2.0,6.0,62,0.00,,,0.00,Wunderground v.1.15,2013-07-14 00:45:00,
2013-07-13 19:50:00,83.7,69.3,29.89,NNE,25,2.0,6.0,62,0.00,,,0.00,Wunderground v.1.15,2013-07-14 00:50:00,
2013-07-13 20:00:00,83.0,70.0,29.89,North,8,2.0,6.0,65,0.00,,,0.00,Wunderground v.1.15,2013-07-14 01:00:00,
2013-07-13 20:05:00,82.9,69.9,29.89,NNE,24,2.0,6.0,65,0.00,,,0.00,Wunderground v.1.15,2013-07-14 01:05:00,
2013-07-13 20:10:00,82.8,69.4,29.89,North,1,2.0,2.0,64,0.00,,,0.00,Wunderground v.1.15,2013-07-14 01:10:00,
2013-07-13 20:15:00,82.6,69.6,29.89,North,6,2.0,6.0,65,0.00,,,0.00,Wunderground v.1.15,2013-07-14 01:15:00,
2013-07-13 20:20:00,82.4,69.4,29.89,North,10,2.0,6.0,65,0.00,,,0.00,Wunderground v.1.15,2013-07-14 01:20:00,
2013-07-13 20:25:00,82.3,69.4,29.90,NE,42,2.0,6.0,65,0.00,,,0.00,Wunderground v.1.15,2013-07-14 01:25:00,
2013-07-13 20:35:00,82.1,69.2,29.90,NE,41,2.0,6.0,65,0.00,,,0.00,Wunderground v.1.15,2013-07-14 01:35:00,
2013-07-13 20:40:00,82.0,69.1,29.90,NE,38,2.0,6.0,65,0.00,,,0.00,Wunderground v.1.15,2013-07-14 01:40:00,
2013-07-13 20:45:00,81.9,69.0,29.90,NE,45,2.0,6.0,65,0.00,,,0.00,Wunderground v.1.15,2013-07-14 01:45:00,
2013-07-13 20:50:00,81.7,69.7,29.90,ENE,60,2.0,2.0,67,0.00,,,0.00,Wunderground v.1.15,2013-07-14 01:50:00,
2013-07-13 20:55:00,81.5,69.5,29.90,ENE,68,1.0,6.0,67,0.00,,,0.00,Wunderground v.1.15,2013-07-14 01:55:00,
2013-07-13 21:05:00,81.0,69.9,29.90,ENE,67,1.0,6.0,69,0.00,,,0.00,Wunderground v.1.15,2013-07-14 02:05:00,
2013-07-13 21:10:00,80.7,70.4,29.90,East,88,1.0,6.0,71,0.00,,,0.00,Wunderground v.1.15,2013-07-14 02:10:00,
2013-07-13 21:15:00,80.0,70.6,29.90,ESE,119,1.0,6.0,73,0.00,,,0.00,Wunderground v.1.15,2013-07-14 02:15:00,
2013-07-13 21:20:00,79.3,70.7,29.91,ESE,120,1.0,6.0,75,0.00,,,0.00,Wunderground v.1.15,2013-07-14 02:20:00,
2013-07-13 21:25:00,79.0,70.8,29.91,ESE,120,1.0,6.0,76,0.00,,,0.00,Wunderground v.1.15,2013-07-14 02:25:00,
2013-07-13 21:30:00,79.0,70.8,29.90,ESE,108,0.0,6.0,76,0.00,,,0.00,Wunderground v.1.15,2013-07-14 02:30:00,
2013-07-13 21:40:00,78.7,71.3,29.91,SE,134,0.0,6.0,78,0.00,,,0.00,Wunderground v.1.15,2013-07-14 02:40:00,
2013-07-13 21:45:00,78.4,71.0,29.91,SE,134,1.0,6.0,78,0.00,,,0.00,Wunderground v.1.15,2013-07-14 02:45:00,
2013-07-13 21:50:00,78.2,71.2,29.91,SE,134,1.0,1.0,79,0.00,,,0.00,Wunderground v.1.15,2013-07-14 02:50:00,
2013-07-13 21:55:00,78.0,71.3,29.91,SE,134,0.0,6.0,80,0.00,,,0.00,Wunderground v.1.15,2013-07-14 02:55:00,
2013-07-13 22:00:00,78.0,71.3,29.91,SE,134,0.0,6.0,80,0.00,,,0.00,Wunderground v.1.15,2013-07-14 03:00:00,
2013-07-13 22:10:00,78.1,71.1,29.92,NE,54,1.0,6.0,79,0.00,,,0.00,Wunderground v.1.15,2013-07-14 03:10:00,
2013-07-13 22:15:00,78.1,71.1,29.92,NNE,31,1.0,6.0,79,0.00,,,0.00,Wunderground v.1.15,2013-07-14 03:15:00,
2013-07-13 22:20:00,78.3,71.2,29.92,ENE,68,1.0,1.0,79,0.00,,,0.00,Wunderground v.1.15,2013-07-14 03:20:00,
2013-07-13 22:25:00,78.2,71.2,29.92,NNE,32,1.0,6.0,79,0.00,,,0.00,Wunderground v.1.15,2013-07-14 03:25:00,
2013-07-13 22:30:00,78.1,71.1,29.92,NE,42,1.0,6.0,79,0.00,,,0.00,Wunderground v.1.15,2013-07-14 03:30:00,
2013-07-13 22:35:00,78.0,71.0,29.92,NE,44,2.0,6.0,79,0.00,,,0.00,Wunderground v.1.15,2013-07-14 03:35:00,
2013-07-13 22:45:00,77.9,71.2,29.92,NNE,14,1.0,6.0,80,0.00,,,0.00,Wunderground v.1.15,2013-07-14 03:45:00,
2013-07-13 22:50:00,77.8,71.1,29.92,NE,43,1.0,6.0,80,0.00,,,0.00,Wunderground v.1.15,2013-07-14 03:50:00,
2013-07-13 22:55:00,77.8,71.5,29.92,North,358,2.0,6.0,81,0.00,,,0.00,Wunderground v.1.15,2013-07-14 03:55:00,
2013-07-13 23:00:00,77.7,71.4,29.92,NE,37,2.0,6.0,81,0.00,,,0.00,Wunderground v.1.15,2013-07-14 04:00:00,
2013-07-13 23:05:00,77.7,71.4,29.92,NE,40,1.0,6.0,81,0.00,,,0.00,Wunderground v.1.15,2013-07-14 04:05:00,
2013-07-13 23:10:00,77.7,71.0,29.92,East,92,1.0,6.0,80,0.00,,,0.00,Wunderground v.1.15,2013-07-14 04:10:00,
2013-07-13 23:15:00,77.6,71.3,29.92,East,80,1.0,6.0,81,0.00,,,0.00,Wunderground v.1.15,2013-07-14 04:15:00,
2013-07-13 23:20:00,77.5,71.2,29.92,ENE,70,1.0,6.0,81,0.00,,,0.00,Wunderground v.1.15,2013-07-14 04:20:00,
2013-07-13 23:25:00,77.4,71.1,29.92,ENE,77,1.0,6.0,81,0.00,,,0.00,Wunderground v.1.15,2013-07-14 04:25:00,
2013-07-13 23:30:00,77.3,71.4,29.91,NE,34,1.0,1.0,82,0.00,,,0.00,Wunderground v.1.15,2013-07-14 04:30:00,
2013-07-13 23:40:00,77.2,70.9,29.91,East,100,1.0,6.0,81,0.00,,,0.00,Wunderground v.1.15,2013-07-14 04:40:00,
2013-07-13 23:45:00,77.1,71.2,29.91,ENE,58,1.0,6.0,82,0.00,,,0.00,Wunderground v.1.15,2013-07-14 04:45:00,
2013-07-13 23:50:00,77.0,71.1,29.91,ESE,123,2.0,2.0,82,0.00,,,0.00,Wunderground v.1.15,2013-07-14 04:50:00,
2013-07-13 23:55:00,76.8,70.9,29.91,ESE,105,1.0,6.0,82,0.00,,,0.00,Wunderground v.1.15,2013-07-14 04:55:00,